< < Back
Terminal Aerodrome Forecast


Current Version              Previous Versions:   1  2  3  4  5  6  7  8  9  

Terminal Aerodrome Forecast

336
FTUS44 KBMX 272323
TAFBHM
TAF
KBHM 272323Z 2800/2824 32010G18KT P6SM BKN070
     FM280300 33006KT P6SM FEW080=

Latest METAR

655
SAUS70 KWBC 282200 RRH
MTRBHM
METAR KBHM 282153Z 27008KT 10SM OVC095 09/M08 A3023 RMK AO2 SLP239
T00941083


USA.gov is the U.S. government's official web portal to all federal, state and local government web resources and services.